createdAt,value
2019-03-25T00:02:28.550Z,17.93
2019-03-25T00:05:35.015Z,18.33
2019-03-25T00:08:41.438Z,18.47
2019-03-25T00:11:47.935Z,16.00
2019-03-25T00:14:54.220Z,18.33
2019-03-25T00:18:00.631Z,17.93
2019-03-25T00:21:07.189Z,19.17
2019-03-25T00:24:13.486Z,23.07
2019-03-25T00:27:19.958Z,21.10
2019-03-25T00:30:26.250Z,25.67
2019-03-25T00:33:32.523Z,28.53
2019-03-25T00:36:39.011Z,31.60
2019-03-25T00:39:45.256Z,28.80
2019-03-25T00:42:51.596Z,30.90
2019-03-25T00:45:57.922Z,26.03
2019-03-25T00:49:04.317Z,30.97
2019-03-25T00:52:10.672Z,30.87
2019-03-25T00:55:16.972Z,21.17
2019-03-25T00:58:23.447Z,16.80
2019-03-25T01:01:29.712Z,14.40
2019-03-25T01:04:36.057Z,16.13
2019-03-25T01:07:43.630Z,13.17
2019-03-25T01:10:49.984Z,18.70
2019-03-25T01:13:56.275Z,16.57
2019-03-25T01:17:02.739Z,14.40
2019-03-25T01:20:09.616Z,15.30
2019-03-25T01:23:15.911Z,16.47
2019-03-25T01:26:22.337Z,16.77
2019-03-25T01:29:28.731Z,15.00
2019-03-25T01:32:35.100Z,13.93
2019-03-25T01:35:41.390Z,16.10
2019-03-25T01:38:48.674Z,16.23
2019-03-25T01:41:55.098Z,19.00
2019-03-25T01:45:01.419Z,17.50
2019-03-25T01:48:07.735Z,18.23
2019-03-25T01:51:14.108Z,15.17
2019-03-25T01:54:20.497Z,16.27
2019-03-25T01:57:26.859Z,15.13
2019-03-25T02:00:33.218Z,15.10
2019-03-25T02:03:39.571Z,18.73
2019-03-25T02:06:45.931Z,20.10
2019-03-25T02:09:52.285Z,19.07
2019-03-25T02:12:59.834Z,16.33
2019-03-25T02:16:06.196Z,16.43
2019-03-25T02:19:12.434Z,22.00
2019-03-25T02:22:19.905Z,22.13
2019-03-25T02:25:26.199Z,15.80
2019-03-25T02:28:32.407Z,20.07
2019-03-25T02:31:38.717Z,16.63
2019-03-25T02:34:44.941Z,17.37
2019-03-25T02:37:51.369Z,19.30
2019-03-25T02:40:57.680Z,19.70
2019-03-25T02:44:04.028Z,25.17
2019-03-25T02:47:10.312Z,28.23
2019-03-25T02:50:16.688Z,30.07
2019-03-25T02:53:23.160Z,26.13
2019-03-25T02:56:29.435Z,30.00
2019-03-25T02:59:35.745Z,28.87
2019-03-25T03:02:42.044Z,28.03
2019-03-25T03:05:48.346Z,26.63
2019-03-25T03:08:54.627Z,25.63
2019-03-25T03:12:01.852Z,26.93
2019-03-25T03:15:09.332Z,22.37
2019-03-25T03:18:15.586Z,25.30
2019-03-25T03:21:21.876Z,19.60
2019-03-25T03:24:28.133Z,19.10
2019-03-25T03:27:34.437Z,19.80
2019-03-25T03:30:40.696Z,17.20
2019-03-25T03:33:46.999Z,19.27
2019-03-25T03:36:53.251Z,18.87
2019-03-25T03:39:59.549Z,18.33
2019-03-25T03:43:06.087Z,18.50
2019-03-25T03:46:12.459Z,16.93
2019-03-25T03:49:18.821Z,19.30
2019-03-25T03:52:25.246Z,21.57
2019-03-25T03:55:31.798Z,17.53
2019-03-25T03:58:39.792Z,18.40
2019-03-25T04:01:47.060Z,19.17
2019-03-25T04:04:53.356Z,17.33
2019-03-25T04:07:59.770Z,19.37
2019-03-25T04:11:06.319Z,19.00
2019-03-25T04:14:13.690Z,15.80
2019-03-25T04:17:20.043Z,21.10
2019-03-25T04:20:26.351Z,17.40
2019-03-25T04:23:32.626Z,24.50
2019-03-25T04:26:38.925Z,19.53
2019-03-25T04:29:45.269Z,19.13
2019-03-25T04:32:51.656Z,17.27
2019-03-25T04:35:57.923Z,21.67
2019-03-25T04:39:05.974Z,16.10
2019-03-25T04:42:12.240Z,19.20
2019-03-25T04:45:18.723Z,24.83
2019-03-25T04:48:24.991Z,20.50
2019-03-25T04:51:31.302Z,23.87
2019-03-25T04:54:37.565Z,23.13
2019-03-25T04:57:45.027Z,19.60
2019-03-25T05:00:51.922Z,17.77
2019-03-25T05:03:58.230Z,17.70
2019-03-25T05:07:04.729Z,20.93
2019-03-25T05:10:12.635Z,21.93
2019-03-25T05:13:18.946Z,25.37
2019-03-25T05:16:25.330Z,20.83
2019-03-25T05:19:31.986Z,20.10
2019-03-25T05:22:38.287Z,21.17
2019-03-25T05:25:44.554Z,19.10
2019-03-25T05:28:50.871Z,23.53
2019-03-25T05:31:57.149Z,20.87
2019-03-25T05:35:03.503Z,19.57
2019-03-25T05:38:09.785Z,21.13
2019-03-25T05:41:23.415Z,21.17
2019-03-25T05:44:34.877Z,28.07
2019-03-25T05:47:41.378Z,24.40
2019-03-25T05:50:47.778Z,22.97
2019-03-25T05:53:54.290Z,23.83
2019-03-25T05:57:02.675Z,25.40
2019-03-25T06:00:09.391Z,21.07
2019-03-25T06:03:15.690Z,27.37
2019-03-25T06:06:22.002Z,32.17
2019-03-25T06:09:28.294Z,24.30
2019-03-25T06:12:34.630Z,25.70
2019-03-25T06:15:41.067Z,26.83
2019-03-25T06:18:48.416Z,23.07
2019-03-25T06:21:54.796Z,26.83
2019-03-25T06:25:01.123Z,23.33
2019-03-25T06:28:07.645Z,29.27
2019-03-25T06:31:14.002Z,23.63
2019-03-25T06:34:20.274Z,23.23
2019-03-25T06:37:26.607Z,30.00
2019-03-25T06:40:33.061Z,29.40
2019-03-25T06:43:39.375Z,29.70
2019-03-25T06:46:45.728Z,27.60
2019-03-25T06:49:51.991Z,29.37
2019-03-25T06:52:58.345Z,22.70
2019-03-25T06:56:04.733Z,34.27
2019-03-25T06:59:11.074Z,29.77
2019-03-25T07:02:17.375Z,34.53
2019-03-25T07:05:23.743Z,34.93
2019-03-25T07:08:30.009Z,32.77
2019-03-25T07:11:36.519Z,36.20
2019-03-25T07:14:43.053Z,28.93
2019-03-25T07:17:49.512Z,36.10
2019-03-25T07:20:55.987Z,33.60
2019-03-25T07:24:03.293Z,35.40
2019-03-25T07:27:09.599Z,35.10
2019-03-25T07:30:16.118Z,37.13
2019-03-25T07:33:22.382Z,42.07
2019-03-25T07:36:28.712Z,32.10
2019-03-25T07:39:35.102Z,35.77
2019-03-25T07:42:42.922Z,36.60
2019-03-25T07:45:49.567Z,34.83
2019-03-25T07:48:57.055Z,29.50
2019-03-25T07:52:03.447Z,31.20
2019-03-25T07:55:10.028Z,32.43
2019-03-25T07:58:16.325Z,30.33
2019-03-25T08:01:22.620Z,30.30
2019-03-25T08:04:28.949Z,27.97
2019-03-25T08:07:35.348Z,28.03
2019-03-25T08:10:41.709Z,35.70
2019-03-25T08:13:48.171Z,31.83
2019-03-25T08:16:54.674Z,27.23
2019-03-25T08:20:01.028Z,31.07
2019-03-25T08:23:07.620Z,36.80
2019-03-25T08:26:14.046Z,34.83
2019-03-25T08:29:20.352Z,39.40
2019-03-25T08:32:27.715Z,26.87
2019-03-25T08:35:34.162Z,42.03
2019-03-25T08:38:40.456Z,26.03
2019-03-25T08:41:46.719Z,23.50
2019-03-25T08:44:53.027Z,26.63
2019-03-25T08:47:59.550Z,25.97
2019-03-25T08:51:05.959Z,23.80
2019-03-25T08:54:12.333Z,22.30
2019-03-25T08:57:18.650Z,19.80
2019-03-25T09:00:24.928Z,20.13
2019-03-25T09:03:32.316Z,25.90
2019-03-25T09:06:38.569Z,30.53
2019-03-25T09:09:44.855Z,24.43
2019-03-25T09:12:51.147Z,24.27
2019-03-25T09:15:57.493Z,24.30
2019-03-25T09:19:03.791Z,24.20
2019-03-25T09:22:10.355Z,24.40
2019-03-25T09:25:16.884Z,26.27
2019-03-25T09:28:24.685Z,24.23
2019-03-25T09:31:36.670Z,23.93
2019-03-25T09:34:40.326Z,26.20
2019-03-25T09:37:46.663Z,27.97
2019-03-25T09:40:53.005Z,28.37
2019-03-25T09:43:59.366Z,21.67
2019-03-25T09:47:05.853Z,15.40
2019-03-25T09:50:14.063Z,23.10
2019-03-25T09:53:20.359Z,28.23
2019-03-25T09:56:26.669Z,20.80
2019-03-25T09:59:33.058Z,23.80
2019-03-25T10:02:39.393Z,19.50
2019-03-25T10:05:45.854Z,20.20
2019-03-25T10:08:52.134Z,24.97
2019-03-25T10:11:58.500Z,21.43
2019-03-25T10:15:05.150Z,24.00
2019-03-25T10:18:11.397Z,20.67
2019-03-25T10:21:17.874Z,24.40
2019-03-25T10:24:27.741Z,18.80
2019-03-25T10:27:36.615Z,24.20
2019-03-25T10:30:43.007Z,22.93
2019-03-25T10:33:49.456Z,23.30
2019-03-25T10:36:55.769Z,19.83
2019-03-25T10:40:02.184Z,19.43
2019-03-25T10:43:08.547Z,22.40
2019-03-25T10:46:15.007Z,23.13
2019-03-25T10:49:21.325Z,23.67
2019-03-25T10:52:27.728Z,26.83
2019-03-25T10:55:34.151Z,24.63
2019-03-25T10:58:40.528Z,25.70
2019-03-25T11:01:46.952Z,25.13
2019-03-25T11:04:53.362Z,29.47
2019-03-25T11:07:59.656Z,23.13
2019-03-25T11:11:06.439Z,20.40
2019-03-25T11:14:12.874Z,19.27
2019-03-25T11:17:19.224Z,19.70
2019-03-25T11:20:25.485Z,22.93
2019-03-25T11:23:31.812Z,20.40
2019-03-25T11:26:38.145Z,20.80
2019-03-25T11:29:44.434Z,17.57
2019-03-25T11:32:50.695Z,18.83
2019-03-25T11:35:57.491Z,25.97
2019-03-25T11:39:04.564Z,17.20
2019-03-25T11:42:10.983Z,17.87
2019-03-25T11:45:17.355Z,20.33
2019-03-25T11:48:23.872Z,22.53
2019-03-25T11:51:30.159Z,20.33
2019-03-25T11:54:36.570Z,22.40
2019-03-25T11:57:42.847Z,19.10
2019-03-25T12:00:49.255Z,19.77
2019-03-25T12:03:55.531Z,21.90
2019-03-25T12:07:01.948Z,19.97
2019-03-25T12:10:11.416Z,20.40
2019-03-25T12:13:17.813Z,23.03
2019-03-25T12:16:24.191Z,23.63
2019-03-25T12:19:30.475Z,22.33
2019-03-25T12:22:37.092Z,19.50
2019-03-25T12:25:43.522Z,16.60
2019-03-25T12:28:49.911Z,18.87
2019-03-25T12:31:56.320Z,19.33
2019-03-25T12:35:02.589Z,17.07
2019-03-25T12:38:09.899Z,15.37
2019-03-25T12:41:16.343Z,17.10
2019-03-25T12:44:22.735Z,21.33
2019-03-25T12:47:29.004Z,19.03
2019-03-25T12:50:35.301Z,14.13
2019-03-25T12:53:41.864Z,14.93
2019-03-25T12:56:48.137Z,22.07
2019-03-25T12:59:57.262Z,17.63
2019-03-25T13:03:03.958Z,14.50
2019-03-25T13:06:10.318Z,24.10
2019-03-25T13:09:16.618Z,16.53
2019-03-25T13:12:22.950Z,14.33
2019-03-25T13:15:29.227Z,12.90
2019-03-25T13:18:35.612Z,14.17
2019-03-25T13:21:41.869Z,11.27
2019-03-25T13:24:48.187Z,13.20
2019-03-25T13:27:54.476Z,11.80
2019-03-25T13:31:00.896Z,11.53
2019-03-25T13:34:08.368Z,10.07
2019-03-25T13:37:19.000Z,12.23
2019-03-25T13:40:26.771Z,15.20
2019-03-25T13:43:33.050Z,12.80
2019-03-25T13:46:39.378Z,14.57
2019-03-25T13:49:45.658Z,12.13
2019-03-25T13:52:52.061Z,12.73
2019-03-25T13:55:58.454Z,13.97
2019-03-25T13:59:04.749Z,15.40
2019-03-25T14:02:11.252Z,14.33
2019-03-25T14:05:17.641Z,10.40
2019-03-25T14:08:24.142Z,12.43
2019-03-25T14:11:30.391Z,12.63
2019-03-25T14:14:36.709Z,9.83
2019-03-25T14:17:43.016Z,10.23
2019-03-25T14:20:49.372Z,14.53
2019-03-25T14:23:55.677Z,12.33
2019-03-25T14:27:02.031Z,12.30
2019-03-25T14:30:14.382Z,13.00
2019-03-25T14:33:17.656Z,11.33
2019-03-25T14:36:24.027Z,9.97
2019-03-25T14:39:30.483Z,11.53
2019-03-25T14:42:36.869Z,10.53
2019-03-25T14:45:43.215Z,10.37
2019-03-25T14:48:49.636Z,11.83
2019-03-25T14:51:55.985Z,16.33
2019-03-25T14:55:02.581Z,14.67
2019-03-25T14:58:08.844Z,11.70
2019-03-25T15:01:15.184Z,11.20
2019-03-25T15:04:21.500Z,18.43
2019-03-25T15:07:27.899Z,10.13
2019-03-25T15:10:34.178Z,11.00
2019-03-25T15:13:40.588Z,15.73
2019-03-25T15:16:46.946Z,13.23
2019-03-25T15:19:53.236Z,13.23
2019-03-25T15:22:59.647Z,12.07
2019-03-25T15:26:07.922Z,11.53
2019-03-25T15:29:15.521Z,8.63
2019-03-25T15:32:21.865Z,13.33
2019-03-25T15:35:28.156Z,13.77
2019-03-25T15:38:34.562Z,12.90
2019-03-25T15:41:41.064Z,10.43
2019-03-25T15:44:47.311Z,14.00
2019-03-25T15:47:53.683Z,12.70
2019-03-25T15:50:59.962Z,11.80
2019-03-25T15:54:06.399Z,14.20
2019-03-25T15:57:12.686Z,14.97
2019-03-25T16:00:19.783Z,14.03
2019-03-25T16:03:26.036Z,19.60
2019-03-25T16:06:32.319Z,15.43
2019-03-25T16:09:38.622Z,17.23
2019-03-25T16:12:45.043Z,13.80
2019-03-25T16:15:51.328Z,17.73
2019-03-25T16:18:57.768Z,16.53
2019-03-25T16:22:04.235Z,10.70
2019-03-25T16:25:13.206Z,19.90
2019-03-25T16:28:19.475Z,12.53
2019-03-25T16:31:25.781Z,15.17
2019-03-25T16:34:32.080Z,19.43
2019-03-25T16:37:38.462Z,22.87
2019-03-25T16:40:44.767Z,14.73
2019-03-25T16:43:51.017Z,12.07
2019-03-25T16:46:57.430Z,15.93
2019-03-25T16:50:03.699Z,17.33
2019-03-25T16:53:10.183Z,12.27
2019-03-25T16:56:16.666Z,13.53
2019-03-25T16:59:22.953Z,13.50
2019-03-25T17:02:29.252Z,13.13
2019-03-25T17:05:35.523Z,13.27
2019-03-25T17:08:41.801Z,12.87
2019-03-25T17:11:48.205Z,15.73
2019-03-25T17:14:54.529Z,10.57
2019-03-25T17:18:00.979Z,11.20
2019-03-25T17:21:08.613Z,12.73
2019-03-25T17:24:15.032Z,9.47
2019-03-25T17:27:21.404Z,13.53
2019-03-25T17:30:27.904Z,10.43
2019-03-25T17:33:34.164Z,11.70
2019-03-25T17:36:40.719Z,11.23
2019-03-25T17:39:47.056Z,10.57
2019-03-25T17:42:53.346Z,9.63
2019-03-25T17:45:59.662Z,11.70
2019-03-25T17:49:06.045Z,12.60
2019-03-25T17:52:12.431Z,11.47
2019-03-25T17:55:19.002Z,12.17
2019-03-25T17:58:25.294Z,8.30
2019-03-25T18:01:35.701Z,10.83
2019-03-25T18:04:41.997Z,10.97
2019-03-25T18:07:48.324Z,18.90
2019-03-25T18:10:54.703Z,7.87
2019-03-25T18:14:02.382Z,8.50
2019-03-25T18:17:08.797Z,7.80
2019-03-25T18:20:18.966Z,8.83
2019-03-25T18:23:23.210Z,11.30
2019-03-25T18:26:29.680Z,9.60
2019-03-25T18:29:36.099Z,8.87
2019-03-25T18:32:42.463Z,7.60
2019-03-25T18:35:48.757Z,6.63
2019-03-25T18:38:55.257Z,11.40
2019-03-25T18:42:01.720Z,8.77
2019-03-25T18:45:08.436Z,9.77
2019-03-25T18:48:14.806Z,8.53
2019-03-25T18:51:21.243Z,11.53
2019-03-25T18:54:27.708Z,9.63
2019-03-25T18:57:34.112Z,8.20
2019-03-25T19:00:40.419Z,14.60
2019-03-25T19:03:46.971Z,7.90
2019-03-25T19:06:53.346Z,10.93
2019-03-25T19:09:59.792Z,12.93
2019-03-25T19:13:06.130Z,11.67
2019-03-25T19:16:15.350Z,10.07
2019-03-25T19:19:21.631Z,10.00
2019-03-25T19:22:28.041Z,9.60
2019-03-25T19:25:34.424Z,9.47
2019-03-25T19:28:40.726Z,8.20
2019-03-25T19:31:47.107Z,10.33
2019-03-25T19:34:53.343Z,9.60
2019-03-25T19:37:59.665Z,8.53
2019-03-25T19:41:06.014Z,18.20
2019-03-25T19:44:12.391Z,16.73
2019-03-25T19:47:18.708Z,17.70
2019-03-25T19:50:25.063Z,18.43
2019-03-25T19:53:31.543Z,16.47
2019-03-25T19:56:37.883Z,13.77
2019-03-25T19:59:44.211Z,15.03
2019-03-25T20:02:50.475Z,19.03
2019-03-25T20:05:56.847Z,17.17
2019-03-25T20:09:03.202Z,16.73
2019-03-25T20:12:09.905Z,15.10
2019-03-25T20:15:16.308Z,18.87
2019-03-25T20:18:22.693Z,33.83
2019-03-25T20:21:29.081Z,12.83
2019-03-25T20:24:35.345Z,12.37
2019-03-25T20:27:41.674Z,9.77
2019-03-25T20:30:48.053Z,12.57
2019-03-25T20:33:54.408Z,16.70
2019-03-25T20:37:00.770Z,24.57
2019-03-25T20:40:07.529Z,24.03
2019-03-25T20:43:13.853Z,17.57
2019-03-25T20:46:20.131Z,18.73
2019-03-25T20:49:26.533Z,18.27
2019-03-25T20:52:32.903Z,13.80
2019-03-25T20:55:39.490Z,14.20
2019-03-25T20:58:45.823Z,13.07
2019-03-25T21:01:52.260Z,13.33
2019-03-25T21:04:58.638Z,13.67
2019-03-25T21:08:04.971Z,11.27
2019-03-25T21:11:11.286Z,10.33
2019-03-25T21:14:17.634Z,14.67
2019-03-25T21:17:24.250Z,9.97
2019-03-25T21:20:30.524Z,14.13
2019-03-25T21:23:36.860Z,14.67
2019-03-25T21:26:43.239Z,9.63
2019-03-25T21:29:49.618Z,9.10
2019-03-25T21:32:58.574Z,9.40
2019-03-25T21:36:04.082Z,10.63
2019-03-25T21:39:10.364Z,13.30
2019-03-25T21:42:16.668Z,9.47
2019-03-25T21:45:24.138Z,9.60
2019-03-25T21:48:30.395Z,11.53
2019-03-25T21:51:36.719Z,9.37
2019-03-25T21:54:43.042Z,10.63
2019-03-25T21:57:49.500Z,9.43
2019-03-25T22:00:55.822Z,9.97
2019-03-25T22:04:02.333Z,11.27
2019-03-25T22:07:08.599Z,9.30
2019-03-25T22:10:15.094Z,11.53
2019-03-25T22:13:21.375Z,9.37
2019-03-25T22:16:27.805Z,12.10
2019-03-25T22:19:34.090Z,12.77
2019-03-25T22:22:40.534Z,12.07
2019-03-25T22:25:47.155Z,12.30
2019-03-25T22:28:53.449Z,15.00
2019-03-25T22:31:59.765Z,13.10
2019-03-25T22:35:06.182Z,17.47
2019-03-25T22:38:13.517Z,13.00
2019-03-25T22:41:19.791Z,9.80
2019-03-25T22:44:26.121Z,14.47
2019-03-25T22:47:32.448Z,14.50
2019-03-25T22:50:38.813Z,13.87
2019-03-25T22:53:45.127Z,11.87
2019-03-25T22:56:51.606Z,15.27
2019-03-25T22:59:57.929Z,23.10
2019-03-25T23:03:04.195Z,20.07
2019-03-25T23:06:10.620Z,13.00
2019-03-25T23:09:16.908Z,15.47
2019-03-25T23:12:23.278Z,15.77
2019-03-25T23:15:29.810Z,12.30
2019-03-25T23:18:36.265Z,15.90
2019-03-25T23:21:42.739Z,20.70
2019-03-25T23:24:49.174Z,17.13
2019-03-25T23:27:55.751Z,13.10
2019-03-25T23:31:02.206Z,17.07
2019-03-25T23:34:08.697Z,15.70
2019-03-25T23:37:15.113Z,19.20
2019-03-25T23:40:21.589Z,18.67
2019-03-25T23:43:28.063Z,21.47
2019-03-25T23:46:34.787Z,15.63
2019-03-25T23:49:42.263Z,13.07
2019-03-25T23:52:48.798Z,17.73
2019-03-25T23:55:56.348Z,13.57
2019-03-25T23:59:02.867Z,12.07
